Latest Weather Observations for Warburton

IDD60801

Issued at 7:05 pm CST Wednesday 23 July 2014 (issued every 30 minutes, with the page automatically refreshed every 10 minutes)

About weather observations | Map of weather stations | Latest weather observations for NT | Other Formats
Station Details ID: 013011 Name: WARBURTON AIRFIELD Lat: -26.13 Lon: 126.58 Height: 459.0 m
Data from the previous 72 hours. | See also: Recent months at Warburton
Date/Time
CST
Temp
°C
App
Temp
°C
Dew
Point
Rel
Hum
%
Delta-T
°C
Wind Press
QNH
hPa
Press
MSL
hPa
Rain
since 9 am
mm
Dir
 
Spd
km/h
Gust
km/h
Spd
kts
Gust
kts
23/07:00pm 14.7 11.1 3.2 46 5.3 WSW 11 13 6 7 1017.9 - 0.0
23/06:30pm 15.6 11.6 3.1 43 5.8 WSW 13 17 7 9 1017.7 - 0.0
23/06:00pm 16.1 12.2 3.2 42 6.0 W 13 24 7 13 1017.6 - 0.0
23/05:30pm 16.3 12.3 2.7 40 6.3 SW 13 24 7 13 1017.5 - 0.0
23/05:00pm 16.4 13.0 3.8 43 6.0 SW 11 17 6 9 1017.3 - 0.0
23/04:30pm 16.2 12.0 3.6 43 5.9 WSW 15 24 8 13 1017.5 1017.1 0.0
23/04:00pm 16.1 12.6 3.5 43 5.9 WSW 11 22 6 12 1017.6 - 0.0
23/03:30pm 15.6 11.8 3.7 45 5.6 W 13 19 7 10 1017.7 - 0.0
23/03:00pm 14.9 10.7 4.0 48 5.1 SW 15 24 8 13 1018.0 - 0.0
23/02:30pm 14.9 10.4 4.0 48 5.1 W 17 37 9 20 1018.0 - 0.0
23/02:00pm 14.1 9.9 3.6 49 4.9 W 15 24 8 13 1018.6 - 0.0
23/01:30pm 13.4 9.2 3.8 52 4.4 WSW 15 22 8 12 1019.4 1019.0 0.0
23/01:00pm 12.8 8.6 5.5 61 3.5 SW 17 24 9 13 1020.1 - 0.0
23/12:30pm 12.4 8.5 5.3 62 3.4 SW 15 22 8 12 1020.4 - 0.0
23/12:00pm 12.3 8.6 6.1 66 3.0 SSW 15 22 8 12 1020.6 - 0.0
23/11:30am 11.6 7.8 5.7 67 2.8 SSW 15 20 8 11 1020.9 - 0.0
23/11:00am 11.3 7.2 6.4 72 2.4 SSW 17 22 9 12 1020.9 - 0.0
23/10:30am 10.5 7.7 7.0 79 1.7 SW 11 15 6 8 1020.8 1020.5 2.8
23/10:00am 9.5 7.1 7.1 85 1.2 WSW 9 15 5 8 1020.6 - 2.8
23/09:30am 8.6 7.0 8.2 97 0.2 NNW 6 7 3 4 1020.3 - 2.8
23/09:00am 6.2 4.5 5.9 98 0.1 N 4 7 2 4 1019.9 - 2.8
23/08:30am 3.9 2.5 3.6 98 0.1 CALM 0 0 0 0 1019.6 - 2.8
23/08:00am 4.2 2.9 3.9 98 0.1 CALM 0 0 0 0 1019.6 - 2.8
23/07:30am 5.0 3.8 4.7 98 0.1 WSW 0 0 0 0 1019.3 1018.9 2.8
23/07:00am 5.9 4.9 5.6 98 0.1 WSW 0 0 0 0 1019.0 - 2.8
23/06:30am 6.9 5.7 6.5 97 0.2 SW 2 6 1 3 1018.7 - 2.8
23/06:00am 8.0 6.1 7.6 97 0.2 SW 7 11 4 6 1018.8 - 2.8
23/05:30am 8.7 6.2 8.3 97 0.2 SSW 11 13 6 7 1018.6 - 2.8
23/05:00am 9.1 7.1 8.6 97 0.2 SW 9 11 5 6 1018.6 - 2.8
23/04:30am 9.4 7.9 9.1 98 0.2 SW 7 9 4 5 1018.5 1018.2 2.6
23/04:00am 10.1 8.3 9.6 97 0.3 SW 9 11 5 6 1018.1 - 2.6
23/03:30am 11.0 8.6 10.2 95 0.4 SW 13 19 7 10 1018.1 - 2.6
23/03:00am 11.8 9.4 11.5 98 0.2 SW 15 22 8 12 1018.1 - 2.6
23/02:30am 11.5 9.8 11.3 99 0.1 W 11 17 6 9 1017.7 - 2.6
23/02:00am 11.4 8.9 11.2 99 0.1 WNW 15 20 8 11 1017.6 - 2.6
23/01:30am 11.9 10.3 11.7 99 0.1 NW 11 15 6 8 1017.3 1016.9 2.6
23/01:00am 11.8 10.2 11.6 99 0.1 NNW 11 13 6 7 1017.3 - 2.6
23/12:30am 11.4 9.3 11.2 99 0.1 N 13 17 7 9 1017.3 - 2.6
23/12:00am 12.1 10.2 11.9 99 0.1 NNW 13 15 7 8 1017.3 - 2.6
 
Date/Time
CST
Temp
°C
App
Temp
°C
Dew
Point
Rel
Hum
%
Delta-T
°C
Wind Press
QNH
hPa
Press
MSL
hPa
Rain
since 9 am
mm
Dir
 
Spd
km/h
Gust
km/h
Spd
kts
Gust
kts
22/11:30pm 12.1 10.6 11.9 99 0.1 NNW 11 15 6 8 1017.3 - 2.4
22/11:00pm 12.1 11.0 11.9 99 0.1 NNW 9 13 5 7 1017.3 - 2.4
22/10:30pm 12.4 10.6 12.2 99 0.1 N 13 17 7 9 1017.2 1016.8 2.4
22/10:00pm 12.2 10.7 12.0 99 0.1 N 11 13 6 7 1017.3 - 2.4
22/09:30pm 12.3 11.2 12.0 98 0.2 NNW 9 11 5 6 1017.3 - 2.4
22/09:00pm 13.0 11.8 12.7 98 0.2 NNW 11 11 6 6 1017.2 - 2.4
22/08:30pm 13.5 12.8 13.2 98 0.2 NNW 9 11 5 6 1017.0 - 2.4
22/08:00pm 14.1 12.8 13.8 98 0.2 NW 13 15 7 8 1016.7 - 2.4
22/07:30pm 14.6 13.5 14.3 98 0.2 WNW 13 20 7 11 1016.5 1016.2 2.4
22/07:00pm 14.5 12.6 14.2 98 0.2 NNW 17 20 9 11 1016.1 - 2.4
22/06:30pm 14.4 12.5 14.1 98 0.2 N 17 22 9 12 1015.7 - 2.4
22/06:00pm 13.8 12.8 13.5 98 0.2 N 11 15 6 8 1015.6 - 2.4
22/05:30pm 13.5 12.0 13.2 98 0.2 N 13 17 7 9 1015.5 - 2.2
22/05:00pm 13.3 12.8 12.8 97 0.3 N 7 15 4 8 1015.7 - 2.2
22/04:30pm 13.7 13.2 12.1 90 0.9 WNW 6 7 3 4 1016.2 1015.9 1.8
22/04:00pm 14.0 13.2 11.7 86 1.3 W 7 9 4 5 1016.3 - 1.4
22/03:30pm 14.2 13.3 11.5 84 1.5 WSW 7 11 4 6 1016.4 - 1.0
22/03:00pm 14.4 13.6 11.7 84 1.5 W 7 9 4 5 1016.7 - 1.0
22/02:30pm 14.4 14.2 11.9 85 1.4 WNW 4 6 2 3 1016.9 - 1.0
22/02:00pm 13.8 14.1 12.2 90 0.9 W 2 6 1 3 1017.4 - 0.8
22/01:30pm 13.5 13.0 11.9 90 0.9 SW 6 7 3 4 1017.9 1017.6 0.6
22/01:00pm 13.3 13.2 12.2 93 0.6 SE 4 7 2 4 1018.1 - 0.6
22/12:30pm 12.6 13.0 11.2 91 0.8 CALM 0 4 0 2 1018.8 - 0.4
22/12:00pm 12.0 10.9 10.7 92 0.7 S 7 9 4 5 1019.0 - 0.4
22/11:30am 11.9 10.8 10.1 89 0.9 S 6 9 3 5 1019.6 - 0.2
22/11:00am 11.6 11.7 10.3 92 0.7 CALM 0 4 0 2 1019.6 - 0.2
22/10:30am 11.5 9.8 9.8 89 0.9 SW 9 15 5 8 1019.5 1019.2 0.4
22/10:00am 12.0 10.5 10.4 90 0.8 S 9 11 5 6 1018.6 - 0.2
22/09:30am 12.2 10.6 8.9 80 1.7 SSE 7 11 4 6 1018.4 - 0.2
22/09:00am 12.8 10.1 7.3 69 2.7 SE 11 15 6 8 1017.8 - 0.0
22/08:30am 12.7 9.8 6.3 65 3.1 SSE 11 13 6 7 1017.5 - 0.0
22/08:00am 13.5 11.0 4.6 55 4.2 ESE 7 9 4 5 1017.7 - 0.0
22/07:30am 13.0 9.7 4.7 57 3.9 SSE 11 17 6 9 1017.3 1016.9 0.0
22/07:00am 13.7 8.1 3.5 50 4.7 SW 22 32 12 17 1017.8 - 0.0
22/06:30am 14.5 12.9 2.4 44 5.5 CALM 0 0 0 0 1016.9 - 0.0
22/06:00am 15.4 12.3 1.5 39 6.2 NE 7 11 4 6 1016.5 - 0.0
22/05:30am 12.8 9.1 2.6 50 4.6 NE 11 13 6 7 1017.1 - 0.0
22/05:00am 12.1 10.8 4.3 59 3.6 CALM 0 0 0 0 1017.3 - 0.0
22/04:30am 12.8 11.4 3.7 54 4.2 CALM 0 0 0 0 1017.4 1017.0 0.0
22/04:00am 13.8 12.7 4.9 55 4.2 CALM 0 0 0 0 1017.8 - 0.0
22/03:30am 14.0 12.8 4.6 53 4.5 CALM 0 0 0 0 1018.3 - 0.0
22/03:00am 14.3 12.9 3.7 49 4.9 CALM 0 0 0 0 1018.5 - 0.0
22/02:30am 14.2 12.7 3.1 47 5.1 CALM 0 0 0 0 1018.6 - 0.0
22/02:00am 14.5 11.7 2.1 43 5.6 NNE 6 7 3 4 1018.6 - 0.0
22/01:30am 13.7 12.1 2.6 47 5.0 CALM 0 0 0 0 1018.6 1018.3 0.0
22/01:00am 13.8 12.1 1.8 44 5.4 CALM 0 0 0 0 1018.7 - 0.0
22/12:30am 14.2 12.4 1.5 42 5.6 CALM 0 7 0 4 1018.8 - 0.0
22/12:00am 13.9 11.0 1.5 43 5.5 E 6 7 3 4 1018.8 - 0.0
 
Date/Time
CST
Temp
°C
App
Temp
°C
Dew
Point
Rel
Hum
%
Delta-T
°C
Wind Press
QNH
hPa
Press
MSL
hPa
Rain
since 9 am
mm
Dir
 
Spd
km/h
Gust
km/h
Spd
kts
Gust
kts
21/11:30pm 14.3 12.6 1.6 42 5.7 CALM 0 0 0 0 1019.6 - 0.0
21/11:00pm 14.1 10.9 0.7 40 5.9 NNE 7 9 4 5 1019.6 - 0.0
21/10:30pm 13.8 12.0 1.1 42 5.6 CALM 0 0 0 0 1019.6 1019.3 0.0
21/10:00pm 13.8 10.8 1.1 42 5.6 ENE 6 7 3 4 1019.5 - 0.0
21/09:30pm 13.3 10.1 1.0 43 5.4 E 7 9 4 5 1019.6 - 0.0
21/09:00pm 15.3 12.5 -0.4 34 6.8 ESE 4 6 2 3 1019.7 - 0.0
21/08:30pm 16.1 12.8 -0.2 33 7.1 SSE 7 9 4 5 1019.5 - 0.0
21/08:00pm 17.5 14.3 -0.2 30 7.8 SSE 6 6 3 3 1019.2 - 0.0
21/07:30pm 18.5 14.8 -0.3 28 8.3 S 9 9 5 5 1018.8 1018.5 0.0
21/07:00pm 19.1 16.3 -0.3 27 8.7 S 4 6 2 3 1018.7 - 0.0
21/06:30pm 21.4 17.9 -1.2 22 10.1 WSW 7 11 4 6 1018.6 - 0.0
21/06:00pm 22.0 19.1 -1.3 21 10.5 NW 4 7 2 4 1018.6 - 0.0
21/05:30pm 22.3 18.9 -1.7 20 10.7 SW 6 13 3 7 1018.5 - 0.0
21/05:00pm 22.2 19.2 -1.8 20 10.7 N 4 11 2 6 1018.4 - 0.0
21/04:30pm 22.9 18.2 -1.9 19 11.1 WNW 13 20 7 11 1018.4 1018.1 0.0
21/04:00pm 22.4 18.1 -1.6 20 10.7 N 11 17 6 9 1018.7 - 0.0
21/03:30pm 21.9 18.6 -0.1 23 10.1 SW 7 13 4 7 1018.9 - 0.0
21/03:00pm 22.1 18.0 0.0 23 10.2 W 11 17 6 9 1019.0 - 0.0
21/02:30pm 21.3 18.1 0.5 25 9.6 S 7 15 4 8 1019.3 - 0.0
21/02:00pm 20.4 16.4 0.3 26 9.2 SSE 11 17 6 9 1019.7 - 0.0
21/01:30pm 20.7 17.1 0.5 26 9.3 SW 9 13 5 7 1020.4 1020.1 0.0
21/01:00pm 20.5 16.9 0.9 27 9.1 WNW 9 15 5 8 1021.0 - 0.0
21/12:30pm 19.4 15.8 0.9 29 8.5 SSW 9 17 5 9 1021.6 - 0.0
21/12:00pm 19.2 15.3 1.2 30 8.3 S 11 17 6 9 1021.9 - 0.0
21/11:30am 18.5 14.6 1.1 31 8.0 S 11 17 6 9 1022.2 - 0.0
21/11:00am 17.8 15.7 3.7 39 6.8 SSE 4 9 2 5 1022.2 - 0.0
21/10:30am 15.6 14.3 4.0 46 5.5 CALM 0 4 0 2 1022.2 1021.9 0.0
21/10:00am 13.1 11.7 3.5 52 4.4 CALM 0 0 0 0 1021.8 - 0.0
21/09:30am 10.1 8.6 3.2 62 3.1 CALM 0 0 0 0 1021.5 - 0.0
21/09:00am 6.6 5.0 2.5 75 1.7 CALM 0 0 0 0 1021.0 - 0.0
21/08:30am 3.5 1.7 0.9 83 1.0 CALM 0 0 0 0 1020.8 - 0.0
21/08:00am 3.9 2.1 1.1 82 1.1 CALM 0 0 0 0 1020.5 - 0.0
21/07:30am 3.9 2.1 0.9 81 1.2 CALM 0 0 0 0 1020.0 1019.7 0.0
21/07:00am 4.1 2.2 0.8 79 1.3 CALM 0 0 0 0 1019.7 - 0.0
21/06:30am 4.6 2.8 1.1 78 1.4 CALM 0 0 0 0 1019.4 - 0.0
21/06:00am 5.2 3.4 1.1 75 1.7 CALM 0 0 0 0 1019.0 - 0.0
21/05:30am 5.7 2.6 1.4 74 1.8 N 7 9 4 5 1018.9 - 0.0
21/05:00am 6.0 3.0 1.9 75 1.7 NNE 7 9 4 5 1018.7 - 0.0
21/04:30am 6.6 3.6 1.9 72 2.0 NE 7 11 4 6 1018.6 1018.3 0.0
21/04:00am 6.3 4.5 1.4 71 2.0 CALM 0 9 0 5 1018.7 - 0.0
21/03:30am 6.6 4.9 1.7 71 2.0 CALM 0 9 0 5 1018.6 - 0.0
21/03:00am 7.5 5.8 2.0 68 2.3 CALM 0 0 0 0 1018.6 - 0.0
21/02:30am 7.9 5.8 2.0 66 2.5 W 2 6 1 3 1018.7 - 0.0
21/02:00am 8.7 5.8 1.6 61 3.0 NNW 6 7 3 4 1018.5 - 0.0
21/01:30am 9.5 6.6 2.8 63 2.9 N 7 7 4 4 1018.6 1018.3 0.0
21/01:00am 10.8 8.0 2.9 58 3.5 NW 7 9 4 5 1018.6 - 0.0
21/12:30am 11.4 8.5 2.7 55 3.9 NNW 7 9 4 5 1018.8 - 0.0
21/12:00am 11.6 9.3 2.9 55 3.9 NW 4 6 2 3 1018.8 - 0.0
 
Date/Time
CST
Temp
°C
App
Temp
°C
Dew
Point
Rel
Hum
%
Delta-T
°C
Wind Press
QNH
hPa
Press
MSL
hPa
Rain
since 9 am
mm
Dir
 
Spd
km/h
Gust
km/h
Spd
kts
Gust
kts
20/11:30pm 12.1 9.3 3.1 54 4.1 NNW 7 9 4 5 1018.8 - 0.0
20/11:00pm 10.6 7.8 2.9 59 3.4 N 7 9 4 5 1018.6 - 0.0
20/10:30pm 11.3 9.7 2.3 54 4.0 CALM 0 0 0 0 1018.4 1018.1 0.0
20/10:00pm 11.9 10.3 2.4 52 4.2 CALM 0 0 0 0 1018.3 - 0.0
20/09:30pm 13.0 10.7 2.8 50 4.6 NNW 4 7 2 4 1018.0 - 0.0
20/09:00pm 14.9 13.0 2.8 44 5.6 NW 2 6 1 3 1017.7 - 0.0

Other Formats:

Comma delimited format used in spreadsheet applications
http://www.bom.gov.au/fwo/IDD60801/IDD60801.94457.axf

JavaScript Object Notation format (JSON) in row-major order
http://www.bom.gov.au/fwo/IDD60801/IDD60801.94457.json